Mateusz Linetty

Recruteur en chef - Cracovia
20 Nov 2027
Samedi
Processus

Personnalité

Adaptabilité (18) Ambition (16) Controverse (4) Loyauté (19) Pression (8) Professionnalisme (5) Sportivité (8) Tempérament (20)

Profil

Style d'entraînement Démocratique
Diplôme National B
Détermination 11
Gestion des joueurs 7
Motivation 9
Discipline 8
Satisfaction professionnelle
100%
Fatigue
0%
Rôle Recruteur en chef
Salaire 28.2K p/s
Contrat 14.03.2030

Performance

Comportement Bon
Efficacité de l'entraînement
43%
Développement des joueurs
40%
Prévention des blessures
35%
Mise en place tactique
40%

Événements récents

A évalué un joueur maintenant
A participé à une réunion de recrutement maintenant
A participé à une réunion de recrutement maintenant
A participé à une réunion de recrutement maintenant
A évalué un joueur maintenant
A évalué un joueur 7j
A évalué un joueur 7j
A évalué un joueur 7j

Suivi en cours

232
Joueur Club Statut Capacité Confiance Observé Dernière observation Dernier vote
Juan Camilo Córdoba Deportivo Pereira Actif 77 / 83 40% 3 19.11.2027 -
Fillip Jenssen Riise Stabaek Actif 103 / 105 40% 4 19.11.2027 -
Diego Cheuquepal Racing Actif 96 / 111 40% 2 19.11.2027 -
Mads Bomholt Lillestrom Actif 113 / 118 40% 3 18.11.2027 -
Andrej Bačanin Grasshopper Actif 115 / 123 40% 1 18.11.2027 -
Dayann Methalie Everton Actif 134 / 142 40% 1 18.11.2027 -
Joel Ezra Enyimba Actif 101 / 90 40% 4 16.11.2027 -
David Asayure Lokomotivi Actif 90 / 90 40% 1 16.11.2027 -
Tiago Gordillo San Miguel Actif 76 / 82 40% 1 16.11.2027 -
Jaydee Canvot Liverpool Actif 138 / 141 40% 1 15.11.2027 -
Kieran Morgan Queens Park Rangers Actif 115 / 124 40% 1 15.11.2027 -
Chris Rigg Sunderland Actif 139 / 149 40% 1 15.11.2027 -
Sam Curtis Swindon Town Actif 111 / 106 40% 2 14.11.2027 -
Olaniyi Saheed Kwara United Actif 96 / 105 40% 1 14.11.2027 -
Hosea Michael Remo Stars Actif 94 / 96 40% 2 12.11.2027 -
Tyson Pearce St. Louis CITY SC Actif 104 / 96 40% 1 10.11.2027 -
Kauã Moraes Cruzeiro Actif 121 / 134 40% 1 10.11.2027 -
Luis Otávio Toronto FC Actif 104 / 133 40% 1 10.11.2027 -
Azizbek To'lqinbekov Bunyodkor Actif 106 / 106 40% 1 08.11.2027 -
Uche Jaguar Kwara United Actif 94 / 99 40% 1 06.11.2027 -
Facundo Balatti Penarol Négociation 92 / 101 40% 3 05.11.2027 -
Nahuel Leivas Montevideo City Torque Actif 101 / 107 40% 2 05.11.2027 -
Inti Borghetto Patronato Actif 95 / 88 40% 2 05.11.2027 -
Igor Orlikowski Gornik Zabrze Actif 96 / 116 40% 1 03.11.2027 -
Ayyoub Bouaddi Blackpool Actif 141 / 144 40% 1 03.11.2027 -
Matteo Duţu Dinamo Bucharest Actif 105 / 109 40% 1 01.11.2027 -
Björn Hedlöf Helsingborg Actif 90 / 99 40% 1 01.11.2027 -
Felipe Faúndez O'Higgins Actif 96 / 118 40% 1 01.11.2027 -
Gideon Manaseh Ikorodu City Actif 90 / 111 40% 3 27.10.2027 -
Nicolás Azambuja Danubio Actif 119 / 137 40% 2 27.10.2027 -
Victor Muriel Valledupar Actif 80 / 81 40% 2 27.10.2027 -
Chimobi Igwilo Rangers International Actif 80 / 93 40% 2 25.10.2027 -
Mfundo Vilakazi Kaizer Chiefs Actif 130 / 122 40% 2 25.10.2027 -
Charlie Rosenqvist GIF Sundsvall Actif 96 / 102 40% 1 25.10.2027 -
Luka Andrade Montevideo City Torque Actif 103 / 119 40% 5 23.10.2027 -
Oskar Spiten-Nysæter Molde Actif 116 / 126 40% 2 23.10.2027 -
Gentian Lajqi Helsingborg Actif 93 / 102 40% 2 23.10.2027 -
Kenan Busuladžić Malmo FF Actif 111 / 129 40% 2 21.10.2027 -
Mateo Silvetti Inter Miami CF Actif 134 / 118 40% 2 21.10.2027 -
Alfons Borén Gefle Actif 84 / 99 40% 1 21.10.2027 -
Austine Odongo Shabana Actif 70 / 77 40% 3 20.10.2027 -
Wilfred Correa Caracas Actif 97 / 102 40% 4 18.10.2027 -
Emiliano Zambrano Gimnasia y Esgrima Actif 87 / 95 40% 2 18.10.2027 -
Emmanuel Akpan Bendel Insurance Actif 91 / 88 40% 3 18.10.2027 -
Jardell Kanga Ilves Actif 96 / 110 40% 2 17.10.2027 -
Troy Nyhammer Tromso Actif 103 / 114 40% 1 17.10.2027 -
Ben Gannon Doak Bournemouth Actif 150 / 146 40% 2 16.10.2027 -
Tiziano Cabrera Central Norte Actif 90 / 107 40% 3 16.10.2027 -
Hassan Beja AFC Leopards Actif 96 / 101 40% 3 14.10.2027 -
Haruna Attah Katsina United Actif 79 / 84 40% 1 14.10.2027 -
Abdulrahman Hamisu Niger Tornadoes Actif 79 / 88 40% 4 13.10.2027 -
Abubakar Garba Nasarawa United Actif 91 / 106 40% 1 13.10.2027 -
Mateo Aguiar Defensa y Justicia Actif 122 / 122 40% 2 12.10.2027 -
Diogo Guzmán Montevideo City Torque Actif 122 / 132 40% 2 12.10.2027 -
Chinedu Nwosu Bendel Insurance Actif 79 / 85 40% 1 11.10.2027 -
Dilan Godoy Vélez Actif 104 / 115 40% 1 09.10.2027 -
Andy Rojas New York Red Bulls Actif 95 / 105 40% 1 09.10.2027 -
Aiden Hezarkhani Real Salt Lake Actif 84 / 110 40% 2 08.10.2027 -
Matías Canedo Rampla Juniors Actif 83 / 93 40% 1 08.10.2027 -
Antonio Palac Malmo FF Actif 98 / 105 40% 2 07.10.2027 -
Estêvão Huddersfield Town Actif 145 / 158 40% 1 07.10.2027 -
Dylan Salvo Defensores Unidos Actif 93 / 114 40% 3 05.10.2027 -
Wisdom Udom Bendel Insurance Actif 83 / 90 40% 2 05.10.2027 -
Alex Amaefula Kun Khalifat Actif 75 / 72 40% 1 04.10.2027 -
Sadiq Auwal Niger Tornadoes Actif 91 / 86 40% 2 03.10.2027 -
Lucas Duré Montevideo City Torque Actif 96 / 117 40% 2 02.10.2027 -
David Martínez Toronto FC Actif 132 / 125 40% 2 01.10.2027 -
Joseph Abah Remo Stars Actif 77 / 106 40% 2 30.09.2027 -
Thiago D'Archivio Alvarado Actif 81 / 84 40% 2 29.09.2027 -
Tiziano Noriega Tristán Suárez Actif 102 / 97 40% 1 29.09.2027 -
Mateo Alcoba Albion Actif 89 / 102 40% 1 29.09.2027 -
Mateo Peralta Danubio Actif 106 / 120 40% 1 23.09.2027 -
Santos Torrealba Zamora Actif 83 / 105 40% 2 22.09.2027 -
Sergio Casseres Llaneros Actif 70 / 72 40% 1 22.09.2027 -
Matias Siltanen Malmo FF Actif 121 / 122 40% 1 21.09.2027 -
Lion Beqiri Falkenberg Actif 91 / 107 40% 1 18.09.2027 -
Sunday Aniebet Enyimba Actif 99 / 105 40% 2 17.09.2027 -
Alan Morinigo Olimpia Actif 109 / 123 40% 1 15.09.2027 -
Appolinaire Bougma Binga Actif 80 / 106 40% 1 11.09.2027 -
Felix Mosquera Deportes Quindio Actif 87 / 85 40% 1 08.09.2027 -
Exequiel Mereles Nacional Actif 101 / 117 40% 1 08.09.2027 -
Geanfranco Rodríguez Defensor Sporting Actif 100 / 87 40% 1 07.09.2027 -
Dylan Salvo Defensores Unidos Perdu 95 / 105 40% 1 23.08.2027 -
Onuorah Onyedika Kun Khalifat Actif 75 / 75 40% 1 16.08.2027 -
Thiago Silvero Sevilla Actif 135 / 126 40% 1 16.08.2027 -
Peter Federico Gornik Zabrze Rapport prêt 128 / 130 72% 1 28.06.2027 -
Abraham Paintsil Hasaacas Actif 86 / 105 40% 2 14.06.2027 -
Davide Bartesaghi AC Milan Actif 127 / 132 40% 1 14.06.2027 -
Daniel Kelly Derby County Actif 117 / 125 40% 1 14.06.2027 -
Alphadjo Cissé Pisa Actif 129 / 127 40% 3 04.06.2027 -
Gladson Sulemana Liberty Professionals Actif 81 / 113 40% 1 04.06.2027 -
Lander Astiazarán Real Sociedad Actif 110 / 107 40% 2 03.06.2027 -
André Miranda Porto Actif 99 / 105 40% 1 03.06.2027 -
Matteo Scanzi Lumezzane Actif 98 / 93 40% 1 02.06.2027 -
Nestory Irankunda Watford Actif 116 / 129 40% 1 02.06.2027 -
Caio Vidal FC Copenhagen Négociation 128 / 129 86% 1 01.06.2027 -
Peter Shalulile Mamelodi Sundowns Négociation 129 / 129 66% 1 01.06.2027 -
Matvii Burenko Vorskla Actif 82 / 79 40% 1 31.05.2027 -
Chineme Chinonso Ikorodu City Actif 89 / 106 40% 1 31.05.2027 -
Rumarn Burrell Queens Park Rangers Actif 130 / 117 40% 9 29.05.2027 -
Jovon Makama Norwich City Actif 122 / 123 40% 3 29.05.2027 -
Abu Kamara Portsmouth Actif 124 / 123 40% 6 29.05.2027 -
Aidomo Emakhu Oxford United Actif 120 / 125 40% 4 28.05.2027 -
Mathias Jørgensen Blackburn Rovers Actif 123 / 126 40% 4 28.05.2027 -
Josh Coburn Millwall Actif 121 / 116 40% 8 27.05.2027 -
Joe Gelhardt Hull City Actif 132 / 140 40% 7 27.05.2027 -
Bradley Fink Wycombe Wanderers Actif 109 / 115 40% 5 27.05.2027 -
Dale Taylor Blackpool Actif 114 / 106 40% 9 26.05.2027 -
Tyrese Campbell Sheffield United Actif 126 / 133 40% 6 24.05.2027 -
Giorgi Kvernadze Frosinone Actif 126 / 121 40% 3 24.05.2027 -
Mees Rijks Bristol Rovers Actif 115 / 106 40% 1 24.05.2027 -
Lamine Cissé Peterborough United Actif 118 / 126 40% 4 23.05.2027 -
Tyreece Campbell Charlton Athletic Actif 117 / 119 40% 3 23.05.2027 -
Lewis Gibson Preston Actif 128 / 118 40% 1 23.05.2027 -
Tristan Crama Millwall Actif 130 / 127 40% 1 23.05.2027 -
Lewis Bate Stockport County Actif 117 / 116 40% 1 23.05.2027 -
Ramón Terrats Getafe Actif 138 / 146 40% 5 22.05.2027 -
Leighton Clarkson Blackpool Actif 112 / 120 40% 2 22.05.2027 -
James Morris Leyton Orient Actif 118 / 119 40% 2 22.05.2027 -
Harry Clarke Preston Actif 134 / 132 40% 2 21.05.2027 -
Aidan Morris Middlesbrough Actif 135 / 134 40% 1 21.05.2027 -
Edoardo Bove Watford Actif 128 / 136 40% 2 20.05.2027 -
Álex Valle Como Actif 133 / 133 40% 2 20.05.2027 -
Kirill Glebov CSKA Moscow Actif 122 / 137 40% 1 19.05.2027 -
Matheus Gonçalves Al-Ahli Actif 128 / 125 40% 1 19.05.2027 -
Yaw Adjei Hasaacas Actif 78 / 89 40% 1 19.05.2027 -
Konan N'Dri Lecce Actif 133 / 124 40% 2 17.05.2027 -
Mihailo Ivanović Millwall Actif 117 / 119 40% 5 15.05.2027 -
Kelly Saravanan Salford City Actif 107 / 110 40% 1 15.05.2027 -
Christian Saydee Wigan Athletic Actif 110 / 113 40% 2 14.05.2027 -
Job Ochieng Real Sociedad Actif 102 / 115 40% 1 14.05.2027 -
Josh Edwards Charlton Athletic Actif 120 / 127 40% 3 13.05.2027 -
Liam Thompson Mansfield Town Actif 112 / 113 40% 1 13.05.2027 -
Aune Heggebø West Bromwich Albion Actif 129 / 126 40% 9 11.05.2027 -
Sam Greenwood Bristol City Actif 121 / 126 40% 2 11.05.2027 -
Lewis McCann Fleetwood Town Actif 98 / 97 40% 1 11.05.2027 -
Cameron Archer Southampton Actif 131 / 130 40% 5 10.05.2027 -
Pablo Rodríguez Lech Actif 119 / 130 40% 10 07.05.2027 -
Marezi Portsmouth Actif 126 / 119 40% 1 06.05.2027 -
Jay Stansfield Birmingham Actif 132 / 132 40% 3 05.05.2027 -
Niall Ennis Blackpool Actif 116 / 109 40% 3 04.05.2027 -
Mohamed-Ali Cho Hull City Actif 135 / 143 40% 1 04.05.2027 -
Stephen Amankona Aduana Stars Actif 94 / 98 40% 3 03.05.2027 -
Etiosa Ighodaro Kaizer Chiefs Actif 110 / 113 40% 3 02.05.2027 -
Yousef Salech Cardiff City Actif 122 / 122 40% 8 30.04.2027 -
Isma Ruiz Córdoba Actif 126 / 127 40% 3 29.04.2027 -
Fabrizio Cavegn Bristol Rovers Actif 113 / 117 40% 1 24.04.2027 -
Tommy Conway Middlesbrough Actif 128 / 121 40% 9 20.04.2027 -
Welington Southampton Actif 131 / 130 40% 2 18.04.2027 -
Malik Mothersille Stockport County Actif 119 / 120 40% 1 17.04.2027 -
Benjamin Tsivanyo Aduana Stars Actif 73 / 83 40% 2 16.04.2027 -
Jalen Blesa Rio Ave Actif 120 / 122 40% 1 14.04.2027 -
Othmane Maamma Watford Actif 128 / 132 40% 2 13.04.2027 -
Teden Mengi Luton Town Actif 119 / 125 40% 2 13.04.2027 -
Oliver Skipp Leicester City Actif 131 / 133 40% 1 13.04.2027 -
Alfie Doughty Millwall Actif 131 / 120 40% 1 13.04.2027 -
Oscar Schwartau Norwich City Actif 114 / 134 40% 1 13.04.2027 -
Caleb Yirenkyi Coventry City Actif 130 / 142 40% 1 13.04.2027 -
Patrick Agyemang Derby County Actif 121 / 130 40% 8 07.04.2027 -
Imrân Louza Watford Actif 132 / 137 40% 2 07.04.2027 -
Tim Iroegbunam Hull City Actif 142 / 138 40% 2 07.04.2027 -
Bobby Thomas Coventry City Actif 134 / 138 40% 1 05.04.2027 -
Roger Fernandes Al-Ittihad Actif 130 / 130 40% 1 04.04.2027 -
Wandile Duba Maritzburg United Actif 108 / 99 40% 3 01.04.2027 -
Mihael Mlinarić Zaglebie Actif 118 / 108 40% 7 31.03.2027 -
Bohdan Viunnyk Lechia Actif 121 / 120 40% 7 29.03.2027 -
Callum Doyle Wrexham Actif 133 / 136 40% 2 28.03.2027 -
Bosun Lawal Stoke City Actif 128 / 124 40% 1 28.03.2027 -
Masoud Ebrahimi Sepahan Actif 122 / 131 40% 8 24.03.2027 -
Camilo Durán Bloemfontein Celtic Actif 118 / 119 40% 4 17.03.2027 -
Christian Krasnodar Actif 134 / 139 40% 3 17.03.2027 -
Max Conway Bolton Wanderers Actif 113 / 118 40% 1 17.03.2027 -
Luke McNally Bristol City Actif 134 / 129 40% 1 17.03.2027 -
Edvin Austbø West Ham United Actif 124 / 125 40% 1 17.03.2027 -
Ronwen Khune Black Aces Actif 90 / 102 40% 1 17.03.2027 -
James Dornelly Peterborough United Actif 104 / 109 40% 1 15.03.2027 -
Paulo Iago Sporting CP Actif 85 / 92 40% 1 15.03.2027 -
Fábio Carvalho Brentford Actif 135 / 131 40% 2 13.03.2027 -
Ethan Galbraith Swansea City Actif 137 / 130 40% 4 10.03.2027 -
Vladislav Blănuţă Lechia Actif 113 / 117 40% 1 10.03.2027 -
Luis Palma Lech Actif 129 / 128 40% 3 07.03.2027 -
Kellen Fisher Norwich City Actif 116 / 131 40% 1 06.03.2027 -
Rajmund Molnár Pogon Actif 116 / 118 40% 5 04.03.2027 -
Tamar Svetlin Korona Actif 127 / 122 40% 1 03.03.2027 -
Bernardo Vital Jagiellonia Actif 133 / 118 40% 1 03.03.2027 -
Tyrell Malacia Derby County Actif 137 / 134 40% 2 02.03.2027 -
Max Johnston Derby County Actif 121 / 121 40% 2 02.03.2027 -
Terry Devlin Portsmouth Actif 116 / 121 40% 1 02.03.2027 -
Richard Koné Queens Park Rangers Actif 129 / 122 40% 4 25.02.2027 -
Aaron Connolly Ruch Actif 120 / 124 40% 4 18.02.2027 -
Filip Kubala Banik Ostrava Actif 117 / 121 40% 1 18.02.2027 -
Armstrong Oko-Flex Levski Actif 114 / 113 40% 2 08.02.2027 -
Allahyar Sayyadmanesh Lech Actif 128 / 129 40% 4 03.02.2027 -
Sergio Lozano Jagiellonia Actif 128 / 126 40% 1 22.01.2027 -
Thulani Billiat Utrecht Négociation 136 / 136 61% 1 01.01.2027 -
Demba Seck Partizan Actif 121 / 127 40% 2 28.12.2026 -
Bojan Radulović Huddersfield Town Actif 120 / 106 40% 3 26.12.2026 -
Ammar Ramadan DAC Dunajska Streda Actif 127 / 115 40% 2 25.12.2026 -
George Hirst Stoke City Actif 129 / 135 40% 1 23.12.2026 -
Jerome Karelse Golden Arrows Actif 102 / 97 40% 2 19.12.2026 -
Tudor Mendel-Idowu Colchester United Actif 96 / 101 40% 1 19.12.2026 -
Mateusz Bogusz Houston Dynamo Actif 134 / 134 40% 3 11.12.2026 -
Adam Idah Swansea City Actif 119 / 131 40% 1 09.12.2026 -
Marin Benko Zadar Actif 127 / 120 40% 1 08.12.2026 -
Michalis Kosidis Zaglebie Actif 114 / 115 40% 1 08.12.2026 -
Hossein Nekounam Siah Jamegan Actif 110 / 102 40% 1 06.12.2026 -
Rúben Vinagre Legia Actif 112 / 110 40% 2 04.12.2026 -
Nadir Zortea Bologna Actif 133 / 128 40% 1 04.12.2026 -
Denzel Jubitana Neftchi Actif 111 / 103 40% 1 04.12.2026 -
Prosper Obah Shakhtar Actif 132 / 125 40% 1 03.12.2026 -
Claudy M'Buyi Rapid Wien Actif 115 / 113 40% 2 29.11.2026 Plus d'infos
Troy Parrott Betis Actif 137 / 141 40% 3 28.11.2026 -
Liel Abada Charlotte Football Club Actif 128 / 116 40% 1 28.11.2026 -
Radek Šiler Podbrezova Actif 109 / 117 40% 2 26.11.2026 -
Sead Hakšabanović Malmo FF Actif 128 / 121 40% 1 26.11.2026 Plus d'infos
Dmytro Kryskiv Shakhtar Actif 123 / 125 40% 1 25.11.2026 -
Maicon Levski Actif 128 / 126 40% 1 25.11.2026 -
Artur Amroziński Spartak Kostroma Actif 84 / 91 40% 1 25.11.2026 -
Vinko Rozić Istra 1961 Actif 120 / 116 40% 1 25.11.2026 -
Simon Elisor Universitatea Craiova Actif 119 / 119 40% 1 21.11.2026 -
Dejan Joveljić Seattle Sounders Actif 119 / 120 40% 1 18.11.2026 -
Hugo Vallejo Piast Actif 112 / 116 40% 1 17.11.2026 -
Alberto Soro Dinamo Bucharest Actif 122 / 115 40% 1 17.11.2026 -
Jesus Ferreira Seattle Sounders Actif 123 / 138 40% 1 15.11.2026 -
Maciej Bortniczuk Metalist Actif 91 / 95 40% 1 15.11.2026 -
Matej Trusa DAC Dunajska Streda Actif 112 / 110 40% 2 14.11.2026 -
Diego García Malmo FF Actif 125 / 121 40% 1 10.11.2026 -
Danil Glebov Dinamo Moscow Actif 134 / 123 40% 2 05.11.2026 -
Kévin Denkey FC Cincinnati Actif 118 / 142 40% 1 05.11.2026 -
Odin Bjørtuft Bodo/Glimt Actif 129 / 139 40% 1 05.11.2026 -
Ante Oreč HNK Rijeka Actif 118 / 119 40% 1 03.11.2026 -
Tomasz Walczak MFK Michalovce Actif 89 / 90 40% 1 25.08.2026 -